Time;durP1;ratioP1;P1;durP2;ratioP2;P2;SDS_P1;SDS_P2;PMS_P1;PMS_P2;Temp;Humidity;BMP_temperature;BMP_pressure;BME280_temperature;BME280_humidity;BME280_pressure;Samples;Min_cycle;Max_cycle;Signal;HPM_P1;HPM_P2
2023/08/10 00:04:54;;;;;;;4.00;3.20;;;;;;;17.07;71.54;100520.88;10180015;28;20058;-61
2023/08/10 00:09:55;;;;;;;4.10;3.00;;;;;;;17.03;71.27;100524.03;10166544;28;20075;-60
2023/08/10 00:14:57;;;;;;;3.97;3.30;;;;;;;16.97;71.68;100528.19;10189243;28;20130;-60
2023/08/10 00:19:58;;;;;;;4.60;3.10;;;;;;;16.88;72.36;100518.38;10184758;28;20062;-60
2023/08/10 00:25:00;;;;;;;4.22;2.97;;;;;;;16.84;72.36;100530.41;10170844;28;20063;-60
2023/08/10 00:30:02;;;;;;;5.20;3.45;;;;;;;16.73;73.16;100527.00;10184456;28;20055;-60
2023/08/10 00:35:04;;;;;;;3.22;2.70;;;;;;;16.70;73.49;100531.84;10165242;28;20055;-60
2023/08/10 00:40:09;;;;;;;4.55;3.33;;;;;;;16.66;74.27;100546.59;10182339;28;20058;-60
2023/08/10 00:45:10;;;;;;;4.68;2.75;;;;;;;16.56;74.52;100535.94;10180836;28;21303;-60
2023/08/10 00:50:12;;;;;;;3.65;2.88;;;;;;;16.49;74.79;100549.13;10183468;28;20047;-60
2023/08/10 00:55:14;;;;;;;4.03;3.25;;;;;;;16.42;75.06;100550.75;10181774;28;20874;-60
2023/08/10 01:00:16;;;;;;;4.55;2.92;;;;;;;16.37;75.60;100555.75;10182178;28;20063;-60
2023/08/10 01:05:17;;;;;;;3.30;3.00;;;;;;;16.35;75.63;100555.03;10186426;28;20322;-60
2023/08/10 01:10:47;;;;;;;4.63;3.25;;;;;;;16.28;75.98;100559.38;10187574;28;20146;-60
2023/08/10 01:15:57;;;;;;;4.10;2.63;;;;;;;16.22;76.52;100550.91;10203724;28;20179;-60
2023/08/10 01:20:59;;;;;;;5.75;2.65;;;;;;;16.16;77.23;100546.16;10185765;28;20502;-60
2023/08/10 01:26:01;;;;;;;4.53;3.30;;;;;;;16.14;77.45;100553.53;10180132;28;20760;-60
2023/08/10 01:31:04;;;;;;;3.40;2.65;;;;;;;16.16;77.47;100556.91;10187703;28;20611;-60
2023/08/10 01:36:06;;;;;;;6.65;3.25;;;;;;;16.17;77.83;100558.59;10201237;28;20488;-60
2023/08/10 01:41:07;;;;;;;3.55;2.35;;;;;;;16.11;78.21;100559.22;10199028;28;20702;-60
2023/08/10 01:46:14;;;;;;;5.90;2.75;;;;;;;16.06;78.38;100562.34;10198556;28;20062;-60
2023/08/10 01:51:22;;;;;;;6.13;2.70;;;;;;;16.05;78.54;100576.75;10185620;28;20662;-60
2023/08/10 01:56:24;;;;;;;5.43;3.10;;;;;;;16.06;78.87;100577.59;10200791;28;20188;-60
2023/08/10 02:01:25;;;;;;;4.07;2.50;;;;;;;16.04;79.03;100566.16;10175868;28;20106;-60
2023/08/10 02:06:27;;;;;;;4.25;3.28;;;;;;;16.02;79.25;100581.59;10174164;28;20081;-61
2023/08/10 02:11:29;;;;;;;5.75;2.88;;;;;;;15.98;79.81;100572.16;10199050;28;20050;-60
2023/08/10 02:16:30;;;;;;;2.92;2.63;;;;;;;16.00;79.72;100576.38;10184573;28;20196;-61
2023/08/10 02:21:32;;;;;;;4.95;2.50;;;;;;;16.03;79.77;100572.53;10171648;28;20131;-60
2023/08/10 02:26:34;;;;;;;4.43;3.00;;;;;;;16.06;79.39;100566.84;10184975;28;20115;-60
2023/08/10 02:31:36;;;;;;;4.63;2.75;;;;;;;16.04;80.05;100563.50;10170488;28;20567;-60
2023/08/10 02:36:37;;;;;;;3.08;2.47;;;;;;;16.00;80.24;100564.78;10182534;28;20062;-61
2023/08/10 02:41:39;;;;;;;4.60;2.80;;;;;;;15.97;80.45;100560.53;10187661;28;20106;-61
2023/08/10 02:46:40;;;;;;;5.10;2.97;;;;;;;15.97;80.53;100559.72;10181611;28;20180;-60
2023/08/10 02:51:42;;;;;;;5.70;3.35;;;;;;;15.93;80.64;100559.19;10176492;28;20129;-61
2023/08/10 02:56:43;;;;;;;3.88;2.80;;;;;;;15.93;81.31;100561.00;10184715;28;20058;-61
2023/08/10 03:01:45;;;;;;;4.00;3.58;;;;;;;15.92;81.44;100573.59;10192252;28;20047;-61
2023/08/10 03:06:47;;;;;;;4.18;2.67;;;;;;;15.87;81.43;100574.03;10177596;28;20059;-61
2023/08/10 03:11:49;;;;;;;6.32;3.53;;;;;;;15.87;81.96;100568.69;10182510;28;20163;-61
2023/08/10 03:16:51;;;;;;;4.00;2.75;;;;;;;15.86;81.98;100569.66;10174205;28;20060;-61
2023/08/10 03:21:53;;;;;;;4.80;2.80;;;;;;;15.85;81.91;100569.81;10180937;28;20055;-61
2023/08/10 03:26:54;;;;;;;7.55;2.90;;;;;;;15.83;81.90;100571.81;10196769;28;20058;-61
2023/08/10 03:31:56;;;;;;;5.05;3.13;;;;;;;15.81;82.23;100569.28;10174118;28;20066;-61
2023/08/10 03:36:57;;;;;;;4.90;3.10;;;;;;;15.73;82.25;100579.88;10181592;28;20355;-61
2023/08/10 03:41:59;;;;;;;3.83;2.75;;;;;;;15.74;82.50;100578.88;10190069;28;20082;-61
2023/08/10 03:47:01;;;;;;;4.40;3.33;;;;;;;15.75;82.57;100580.59;10182464;28;20055;-61
2023/08/10 03:52:02;;;;;;;4.78;2.22;;;;;;;15.77;82.44;100583.94;10171379;28;20047;-61
2023/08/10 03:57:04;;;;;;;4.18;3.30;;;;;;;15.76;82.43;100582.25;10181662;28;20051;-61
2023/08/10 04:02:06;;;;;;;3.38;2.58;;;;;;;15.74;82.28;100578.88;10178815;28;20907;-63
2023/08/10 04:07:07;;;;;;;3.22;2.55;;;;;;;15.77;82.10;100580.44;10193873;28;20243;-61
2023/08/10 04:12:09;;;;;;;5.20;3.17;;;;;;;15.71;81.93;100577.34;10169322;28;20517;-61
2023/08/10 04:17:11;;;;;;;4.15;2.90;;;;;;;15.69;82.34;100586.56;10199008;28;20047;-61
2023/08/10 04:22:13;;;;;;;5.47;3.33;;;;;;;15.70;82.34;100609.69;10181915;28;20047;-61
2023/08/10 04:27:14;;;;;;;3.72;2.67;;;;;;;15.69;82.10;100613.38;10185811;28;20055;-60
2023/08/10 04:32:16;;;;;;;5.60;3.08;;;;;;;15.68;82.42;100601.78;10182225;28;20154;-61
2023/08/10 04:37:17;;;;;;;6.68;3.08;;;;;;;15.69;82.77;100602.66;10182137;28;20592;-61
2023/08/10 04:42:19;;;;;;;7.00;2.65;;;;;;;15.74;82.74;100627.19;10190744;28;20047;-61
2023/08/10 04:47:20;;;;;;;2.83;2.63;;;;;;;15.74;83.18;100606.56;10193701;28;20055;-61
2023/08/10 04:52:22;;;;;;;5.85;3.45;;;;;;;15.74;82.93;100616.47;10191844;28;20051;-60
2023/08/10 04:57:23;;;;;;;4.00;2.83;;;;;;;15.77;82.88;100616.16;10191039;28;20051;-61
2023/08/10 05:02:25;;;;;;;4.40;3.08;;;;;;;15.79;82.84;100624.09;10191519;28;20055;-61
2023/08/10 05:07:27;;;;;;;5.88;2.90;;;;;;;15.77;82.44;100624.22;10184098;28;20669;-61
2023/08/10 05:12:29;;;;;;;4.25;3.28;;;;;;;15.80;82.68;100642.72;10192882;28;20047;-61
2023/08/10 05:17:31;;;;;;;4.05;3.30;;;;;;;15.86;82.40;100652.03;10189197;28;20138;-62
2023/08/10 05:22:33;;;;;;;4.22;3.30;;;;;;;15.89;82.58;100651.75;10190020;28;20149;-62
2023/08/10 05:27:36;;;;;;;4.18;2.78;;;;;;;15.92;82.82;100650.59;10174447;28;20105;-62
2023/08/10 05:32:43;;;;;;;4.20;2.65;;;;;;;15.93;82.13;100649.59;10180992;28;20056;-61
2023/08/10 05:37:46;;;;;;;3.67;3.28;;;;;;;15.89;82.08;100647.22;10191595;28;20076;-61
2023/08/10 05:42:47;;;;;;;5.43;3.33;;;;;;;15.93;83.51;100630.81;10190197;28;20075;-60
2023/08/10 05:47:50;;;;;;;3.38;2.65;;;;;;;15.94;83.53;100649.44;10188548;28;20071;-60
2023/08/10 05:52:52;;;;;;;9.38;3.35;;;;;;;15.99;82.99;100654.38;10205728;28;20055;-65
2023/08/10 05:57:54;;;;;;;7.13;3.80;;;;;;;16.00;83.45;100650.69;10188422;28;20066;-61
2023/08/10 06:02:55;;;;;;;6.60;3.38;;;;;;;16.06;82.70;100653.66;10191629;28;20055;-61
2023/08/10 06:07:58;;;;;;;4.55;2.90;;;;;;;16.14;82.45;100652.88;10185855;28;20104;-61
2023/08/10 06:12:59;;;;;;;6.13;3.55;;;;;;;16.18;82.80;100662.34;10182923;28;20047;-61
2023/08/10 06:18:02;;;;;;;3.53;2.55;;;;;;;16.20;82.53;100648.75;10175776;28;20216;-60
2023/08/10 06:23:03;;;;;;;5.88;3.60;;;;;;;16.21;81.26;100656.66;10188393;28;20051;-61
2023/08/10 06:28:06;;;;;;;4.85;3.08;;;;;;;16.14;81.20;100654.72;10186435;28;20186;-61
2023/08/10 06:33:11;;;;;;;3.73;3.10;;;;;;;16.19;82.87;100655.13;10187390;28;20495;-61
2023/08/10 06:38:13;;;;;;;5.28;3.22;;;;;;;16.29;81.91;100668.47;10183657;28;20870;-61
2023/08/10 06:43:15;;;;;;;3.70;3.05;;;;;;;16.38;82.13;100663.06;10188918;28;20056;-60
2023/08/10 06:48:16;;;;;;;4.00;3.60;;;;;;;16.49;82.04;100675.44;10176445;28;20127;-59
2023/08/10 06:53:18;;;;;;;4.63;3.58;;;;;;;16.59;81.63;100678.91;10169032;28;20051;-60
2023/08/10 06:58:20;;;;;;;4.68;3.97;;;;;;;16.70;81.27;100683.19;10183351;28;20114;-61
2023/08/10 07:03:24;;;;;;;6.75;3.70;;;;;;;16.79;81.32;100676.91;10181955;28;20598;-60
2023/08/10 07:08:26;;;;;;;6.03;3.72;;;;;;;16.92;80.10;100681.09;10188982;28;20913;-60
2023/08/10 07:13:28;;;;;;;6.82;3.85;;;;;;;16.96;79.65;100688.69;10183421;28;20563;-60
2023/08/10 07:18:30;;;;;;;6.88;4.00;;;;;;;17.07;80.28;100689.44;10183994;28;20508;-60
2023/08/10 07:23:31;;;;;;;5.90;3.75;;;;;;;17.08;78.64;100691.13;10182541;28;20083;-61
2023/08/10 07:28:33;;;;;;;5.03;3.90;;;;;;;17.06;78.99;100687.75;10169848;28;20056;-60
2023/08/10 07:33:34;;;;;;;4.97;4.35;;;;;;;17.23;78.90;100696.81;10183685;28;20606;-60
2023/08/10 07:38:36;;;;;;;5.55;3.28;;;;;;;17.46;78.91;100702.53;10185867;28;20059;-60
2023/08/10 07:43:37;;;;;;;6.35;3.92;;;;;;;17.58;77.59;100708.47;10203687;28;20656;-60
2023/08/10 07:48:39;;;;;;;4.10;3.67;;;;;;;17.84;77.09;100717.38;10181333;28;20058;-60
2023/08/10 07:53:41;;;;;;;5.78;4.38;;;;;;;17.97;76.23;100713.44;10184676;28;20689;-59
2023/08/10 07:58:42;;;;;;;6.65;5.28;;;;;;;18.04;75.16;100709.09;10183705;28;20052;-60
2023/08/10 08:03:44;;;;;;;5.43;4.32;;;;;;;18.24;75.26;100712.41;10181320;28;20805;-60
2023/08/10 08:08:45;;;;;;;6.45;3.75;;;;;;;18.54;74.31;100705.59;10183102;28;20055;-60
2023/08/10 08:13:47;;;;;;;4.13;3.72;;;;;;;18.83;72.79;100706.16;10183848;28;20070;-60
2023/08/10 08:18:53;;;;;;;5.13;3.28;;;;;;;18.97;71.22;100710.91;10193672;28;20959;-60
2023/08/10 08:23:55;;;;;;;3.35;2.80;;;;;;;19.10;71.60;100705.03;10174138;28;20122;-59
2023/08/10 08:28:58;;;;;;;5.63;2.20;;;;;;;19.33;70.79;100691.69;10189534;28;20582;-60
2023/08/10 08:33:59;;;;;;;4.50;2.58;;;;;;;19.54;70.38;100695.72;10205445;28;20047;-60
2023/08/10 08:39:01;;;;;;;3.15;2.50;;;;;;;19.83;70.53;100683.50;10193363;28;20790;-59
2023/08/10 08:44:07;;;;;;;4.13;2.38;;;;;;;20.13;70.30;100684.56;10185058;28;20055;-59
2023/08/10 08:49:09;;;;;;;3.88;2.10;;;;;;;20.23;66.74;100677.09;10190699;28;20055;-59
2023/08/10 08:54:12;;;;;;;3.63;2.03;;;;;;;20.33;67.71;100674.19;10187232;28;20657;-59
2023/08/10 08:59:16;;;;;;;3.60;2.20;;;;;;;20.50;67.25;100666.81;10193559;28;20492;-61
2023/08/10 09:04:17;;;;;;;5.63;2.58;;;;;;;20.72;67.32;100657.06;10189333;28;20059;-60
2023/08/10 09:09:19;;;;;;;5.82;2.50;;;;;;;20.97;66.20;100651.44;10207463;28;20061;-59
2023/08/10 09:14:20;;;;;;;2.53;2.22;;;;;;;21.19;63.86;100655.16;10190230;28;20868;-60
2023/08/10 09:19:21;;;;;;;3.65;2.00;;;;;;;21.27;62.76;100648.81;10200601;28;20320;-59
2023/08/10 09:24:23;;;;;;;3.70;1.63;;;;;;;21.46;62.52;100634.75;10190151;28;25226;-59
2023/08/10 09:29:32;;;;;;;3.70;2.78;;;;;;;21.63;59.25;100640.88;10188792;28;20086;-60
2023/08/10 09:34:34;;;;;;;7.53;2.83;;;;;;;21.86;59.50;100642.63;10173847;28;20055;-59
2023/08/10 09:39:35;;;;;;;4.43;2.80;;;;;;;22.05;57.76;100641.19;10184824;28;20622;-59
2023/08/10 09:44:47;;;;;;;5.13;2.70;;;;;;;22.24;58.67;100640.59;10185117;28;20320;-59
2023/08/10 09:50:04;;;;;;;6.10;2.72;;;;;;;22.40;54.05;100638.72;10188898;28;20054;-59
2023/08/10 09:55:07;;;;;;;3.28;2.88;;;;;;;22.41;56.44;100634.97;10182980;28;20047;-59
2023/08/10 10:00:15;;;;;;;4.50;2.30;;;;;;;22.64;56.33;100629.38;10202255;28;20059;-59
2023/08/10 10:05:19;;;;;;;3.58;1.95;;;;;;;22.89;56.10;100623.53;10185258;28;20070;-59
2023/08/10 10:10:24;;;;;;;5.82;2.55;;;;;;;23.09;54.61;100613.72;10174332;28;20046;-59
2023/08/10 10:15:26;;;;;;;3.97;1.87;;;;;;;23.20;54.17;100614.22;10188313;28;20051;-60
2023/08/10 10:20:28;;;;;;;6.30;2.15;;;;;;;23.47;52.45;100618.75;10200665;28;20545;-59
2023/08/10 10:25:29;;;;;;;3.90;1.42;;;;;;;23.56;52.26;100613.19;10187520;28;20515;-60
2023/08/10 10:30:31;;;;;;;3.47;1.55;;;;;;;23.80;51.41;100612.66;10188305;28;20134;-60
2023/08/10 10:35:33;;;;;;;2.50;1.38;;;;;;;24.34;50.95;100600.13;10174988;28;20071;-60
2023/08/10 10:40:34;;;;;;;2.60;1.42;;;;;;;24.38;50.05;100597.84;10174988;28;20043;-60
2023/08/10 10:45:41;;;;;;;3.13;1.80;;;;;;;24.52;50.08;100595.97;10177552;28;20321;-60
2023/08/10 10:50:43;;;;;;;3.03;1.83;;;;;;;24.64;49.65;100596.25;10183105;28;20392;-60
2023/08/10 10:55:48;;;;;;;2.60;1.80;;;;;;;24.90;49.34;100579.06;10170623;28;20445;-60
2023/08/10 11:00:50;;;;;;;1.85;1.35;;;;;;;25.13;48.61;100575.06;10183045;28;20153;-61
2023/08/10 11:05:53;;;;;;;2.58;1.80;;;;;;;25.17;47.14;100574.41;10184349;28;20726;-66
2023/08/10 11:10:58;;;;;;;2.30;1.75;;;;;;;25.24;46.76;100579.88;10182706;28;20065;-60
2023/08/10 11:15:59;;;;;;;2.47;1.48;;;;;;;25.41;45.65;100580.28;10175860;28;20059;-60
2023/08/10 11:21:05;;;;;;;2.67;1.70;;;;;;;25.39;45.43;100566.88;10171054;28;20055;-62
2023/08/10 11:26:07;;;;;;;2.70;1.40;;;;;;;25.50;44.25;100570.81;10184636;28;20048;-61
2023/08/10 11:31:09;;;;;;;6.13;2.17;;;;;;;25.67;44.88;100557.56;10173461;28;20043;-61
2023/08/10 11:36:11;;;;;;;3.20;1.60;;;;;;;25.70;43.91;100557.13;10179063;28;20047;-60
2023/08/10 11:41:13;;;;;;;1.63;1.10;;;;;;;25.55;44.74;100542.91;10199784;28;20044;-60
2023/08/10 11:46:16;;;;;;;3.40;1.27;;;;;;;25.67;43.92;100548.53;10179932;28;20078;-60
2023/08/10 11:51:20;;;;;;;2.42;1.50;;;;;;;25.58;42.93;100548.78;10180751;28;20059;-60
2023/08/10 11:56:22;;;;;;;5.27;1.43;;;;;;;25.85;43.49;100547.81;10169453;28;20066;-60
2023/08/10 12:01:24;;;;;;;3.53;1.70;;;;;;;25.74;42.42;100552.88;10181169;28;20138;-60
2023/08/10 12:06:26;;;;;;;1.93;1.60;;;;;;;25.57;42.54;100546.28;10181386;28;20139;-60
2023/08/10 12:11:28;;;;;;;2.50;0.90;;;;;;;25.90;41.90;100537.94;10183488;28;20056;-62
2023/08/10 12:16:30;;;;;;;2.85;1.27;;;;;;;26.26;42.23;100536.50;10183008;28;20763;-60
2023/08/10 12:21:31;;;;;;;1.30;0.90;;;;;;;26.51;38.99;100545.75;10182810;28;20058;-60
2023/08/10 12:26:33;;;;;;;2.22;1.17;;;;;;;26.61;38.21;100537.91;10185319;28;20099;-64
2023/08/10 12:31:34;;;;;;;2.00;0.93;;;;;;;26.54;38.41;100539.84;10181064;28;20414;-60
2023/08/10 12:36:36;;;;;;;3.00;1.30;;;;;;;26.61;39.57;100524.25;10169579;28;20918;-61
2023/08/10 12:41:38;;;;;;;1.95;1.15;;;;;;;26.65;37.81;100525.50;10182940;28;21692;-60
2023/08/10 12:46:40;;;;;;;2.67;2.03;;;;;;;26.69;39.48;100524.00;10182514;28;20571;-60
2023/08/10 12:51:41;;;;;;;2.30;1.48;;;;;;;26.76;38.49;100532.97;10167838;28;20564;-60
2023/08/10 12:56:43;;;;;;;4.03;1.38;;;;;;;26.73;38.77;100536.16;10182502;28;20054;-61
2023/08/10 13:01:44;;;;;;;4.10;1.60;;;;;;;26.60;36.88;100528.03;10191760;28;20477;-60
2023/08/10 13:06:46;;;;;;;2.92;1.42;;;;;;;26.59;38.56;100532.66;10194043;28;20058;-60
2023/08/10 13:11:47;;;;;;;3.47;2.55;;;;;;;26.60;38.02;100528.03;10190066;28;20806;-60
2023/08/10 13:16:49;;;;;;;1.55;1.08;;;;;;;26.56;36.75;100529.56;10177881;28;20490;-60
2023/08/10 13:21:51;;;;;;;2.97;1.20;;;;;;;26.56;35.14;100522.19;10183232;28;20054;-60
2023/08/10 13:26:53;;;;;;;3.10;1.40;;;;;;;26.50;36.19;100516.78;10187113;28;20206;-61
2023/08/10 13:31:54;;;;;;;2.53;1.30;;;;;;;26.39;36.31;100524.66;10185829;28;20339;-60
2023/08/10 13:36:57;;;;;;;1.80;1.13;;;;;;;26.35;37.50;100523.41;10187282;28;20079;-60
2023/08/10 13:41:59;;;;;;;1.88;1.42;;;;;;;26.31;37.33;100533.09;10202188;28;20423;-63
2023/08/10 13:47:01;;;;;;;1.75;1.05;;;;;;;26.27;38.83;100529.13;10190339;28;20063;-59
2023/08/10 13:52:03;;;;;;;1.13;0.87;;;;;;;26.21;38.37;100513.66;10176081;28;20291;-59
2023/08/10 13:57:07;;;;;;;2.17;1.20;;;;;;;26.27;38.32;100520.94;10185519;28;20062;-59
2023/08/10 14:02:09;;;;;;;2.45;1.30;;;;;;;26.26;38.69;100522.03;10188807;28;20173;-60
2023/08/10 14:07:14;;;;;;;1.77;0.70;;;;;;;26.22;39.01;100516.16;10185482;28;20058;-61
2023/08/10 14:12:16;;;;;;;2.92;1.15;;;;;;;26.23;38.74;100506.09;10185744;28;20568;-60
2023/08/10 14:17:18;;;;;;;1.90;1.52;;;;;;;26.20;38.87;100517.44;10203261;28;20501;-59
2023/08/10 14:22:19;;;;;;;2.55;1.38;;;;;;;26.01;38.62;100506.44;10183617;28;20055;-60
2023/08/10 14:27:21;;;;;;;2.35;1.20;;;;;;;25.86;38.19;100508.59;10188551;28;20131;-60
2023/08/10 14:32:24;;;;;;;3.28;1.40;;;;;;;25.79;39.68;100505.06;10197193;28;20049;-59
2023/08/10 14:37:26;;;;;;;2.13;1.15;;;;;;;25.71;39.91;100500.72;10185999;28;20052;-59
2023/08/10 14:42:28;;;;;;;1.92;1.00;;;;;;;25.59;38.24;100489.66;10184021;28;20059;-60
2023/08/10 14:47:34;;;;;;;1.20;1.10;;;;;;;25.49;38.11;100508.34;10183440;28;20703;-60
2023/08/10 14:52:36;;;;;;;2.42;1.70;;;;;;;25.44;38.68;100508.16;10178730;28;20077;-61
2023/08/10 14:57:37;;;;;;;1.65;1.15;;;;;;;25.40;39.59;100507.75;10170815;28;20084;-66
2023/08/10 15:02:39;;;;;;;2.00;0.95;;;;;;;25.41;39.64;100499.34;10186557;28;20134;-60
2023/08/10 15:07:42;;;;;;;2.28;1.55;;;;;;;25.35;39.58;100493.94;10186198;28;20043;-60
2023/08/10 15:12:46;;;;;;;2.17;1.30;;;;;;;25.29;39.22;100492.88;10179679;28;20055;-60
2023/08/10 15:17:48;;;;;;;2.40;1.17;;;;;;;25.23;38.82;100486.41;10185199;28;20155;-64
2023/08/10 15:22:49;;;;;;;1.98;1.55;;;;;;;25.20;39.43;100477.84;10194763;28;20125;-61
2023/08/10 15:27:51;;;;;;;1.55;1.10;;;;;;;25.18;40.10;100488.13;10185233;28;20127;-60
2023/08/10 15:32:53;;;;;;;1.52;1.00;;;;;;;25.16;39.25;100484.75;10183533;28;20055;-61
2023/08/10 15:37:55;;;;;;;2.87;1.50;;;;;;;25.12;39.23;100483.53;10182487;28;20051;-61
2023/08/10 15:42:57;;;;;;;2.93;1.30;;;;;;;25.06;39.60;100486.03;10181874;28;20055;-60
2023/08/10 15:47:58;;;;;;;2.20;0.80;;;;;;;25.04;40.00;100479.97;10185056;28;20051;-60
2023/08/10 15:53:00;;;;;;;2.65;1.63;;;;;;;25.05;39.47;100473.47;10181584;28;20085;-61
2023/08/10 15:58:01;;;;;;;1.92;1.20;;;;;;;25.02;39.93;100478.50;10181633;28;20059;-60
2023/08/10 16:03:04;;;;;;;3.28;1.50;;;;;;;24.95;40.25;100467.66;10180110;28;20125;-61
2023/08/10 16:08:06;;;;;;;2.60;1.20;;;;;;;25.01;39.37;100477.69;10188001;28;20051;-60
2023/08/10 16:13:08;;;;;;;3.03;1.30;;;;;;;24.95;39.26;100470.38;10181479;28;20047;-61
2023/08/10 16:18:09;;;;;;;2.85;1.23;;;;;;;24.91;39.42;100477.28;10182340;28;20047;-61
2023/08/10 16:23:12;;;;;;;1.85;1.10;;;;;;;24.91;39.24;100477.28;10189638;28;21077;-60
2023/08/10 16:28:13;;;;;;;2.93;1.20;;;;;;;24.87;39.47;100465.16;10180577;28;20054;-61
2023/08/10 16:33:15;;;;;;;1.98;1.33;;;;;;;24.87;39.52;100470.59;10178868;28;20130;-60
2023/08/10 16:38:16;;;;;;;2.25;1.20;;;;;;;24.89;39.83;100479.38;10176137;28;20471;-60
2023/08/10 16:43:18;;;;;;;2.60;1.33;;;;;;;24.82;40.30;100470.41;10186038;28;20067;-62
2023/08/10 16:48:20;;;;;;;2.33;1.20;;;;;;;24.83;40.34;100474.78;10177139;28;20062;-61
2023/08/10 16:53:21;;;;;;;3.40;1.58;;;;;;;24.79;40.06;100481.72;10184034;28;20481;-62
2023/08/10 16:58:24;;;;;;;1.80;1.03;;;;;;;24.77;40.14;100481.06;10189259;28;20079;-61
2023/08/10 17:03:26;;;;;;;2.78;1.00;;;;;;;24.74;40.12;100497.81;10177463;28;20677;-61
2023/08/10 17:08:27;;;;;;;2.33;1.23;;;;;;;24.74;40.22;100486.94;10170343;28;20212;-61
2023/08/10 17:13:29;;;;;;;5.10;1.20;;;;;;;24.72;40.44;100486.31;10204096;28;20353;-62
2023/08/10 17:18:31;;;;;;;1.77;1.40;;;;;;;24.72;40.98;100491.75;10188416;28;20444;-61
2023/08/10 17:23:33;;;;;;;2.03;1.20;;;;;;;24.67;40.77;100487.78;10189669;28;20070;-62
2023/08/10 17:28:34;;;;;;;2.13;1.23;;;;;;;24.63;41.00;100497.41;10194206;28;20589;-62
2023/08/10 17:33:38;;;;;;;3.75;1.52;;;;;;;24.60;41.33;100494.28;10189588;28;20058;-61
2023/08/10 17:38:39;;;;;;;3.95;1.55;;;;;;;24.54;41.25;100493.19;10201539;28;20051;-62
2023/08/10 17:43:42;;;;;;;2.45;1.23;;;;;;;24.52;41.73;100490.69;10184293;28;20712;-61
2023/08/10 17:48:43;;;;;;;2.42;1.27;;;;;;;24.49;41.60;100490.28;10188241;28;20059;-61
2023/08/10 17:53:45;;;;;;;3.00;1.60;;;;;;;24.41;40.96;100487.75;10186811;28;20078;-61
2023/08/10 17:58:47;;;;;;;3.08;1.55;;;;;;;24.34;42.04;100494.03;10202273;28;20062;-61
2023/08/10 18:03:50;;;;;;;2.58;1.25;;;;;;;24.30;42.52;100490.06;10188646;28;20059;-61
2023/08/10 18:08:52;;;;;;;2.75;1.73;;;;;;;24.26;42.77;100496.97;10182999;28;20157;-60
2023/08/10 18:13:53;;;;;;;1.63;1.30;;;;;;;24.21;43.76;100488.59;10186468;28;20143;-60
2023/08/10 18:18:56;;;;;;;4.28;2.08;;;;;;;24.14;44.21;100485.03;10184200;28;20114;-60
2023/08/10 18:23:58;;;;;;;3.25;1.63;;;;;;;24.10;44.46;100489.22;10174589;28;20063;-60
2023/08/10 18:28:59;;;;;;;3.22;1.52;;;;;;;24.06;44.50;100485.22;10197326;28;20936;-61
2023/08/10 18:34:01;;;;;;;3.83;1.60;;;;;;;23.98;45.38;100494.44;10158484;28;20063;-61
2023/08/10 18:39:04;;;;;;;2.13;1.35;;;;;;;23.94;45.21;100499.41;10186618;28;20067;-61
2023/08/10 18:44:05;;;;;;;2.22;1.65;;;;;;;23.89;45.27;100507.38;10183814;28;20468;-61
2023/08/10 18:49:07;;;;;;;3.25;1.42;;;;;;;23.79;44.87;100502.28;10189961;28;20639;-61
2023/08/10 18:54:09;;;;;;;2.55;2.05;;;;;;;23.71;46.22;100515.22;10183291;28;20527;-61
2023/08/10 18:59:11;;;;;;;4.22;1.83;;;;;;;23.64;45.67;100526.06;10170515;28;20052;-60
2023/08/10 19:04:12;;;;;;;3.20;1.88;;;;;;;23.51;45.05;100532.28;10187769;28;20058;-61
2023/08/10 19:09:14;;;;;;;3.67;1.67;;;;;;;23.43;45.10;100530.56;10186803;28;20183;-60
2023/08/10 19:14:15;;;;;;;2.67;1.73;;;;;;;23.41;44.58;100542.69;10185439;28;20118;-60
2023/08/10 19:19:17;;;;;;;3.13;1.50;;;;;;;23.34;44.95;100550.78;10181972;28;20051;-60
2023/08/10 19:24:19;;;;;;;3.45;1.75;;;;;;;23.26;44.94;100554.50;10187180;28;20051;-60
2023/08/10 19:29:20;;;;;;;2.28;1.48;;;;;;;23.17;45.44;100544.00;10185556;28;20212;-61
2023/08/10 19:34:22;;;;;;;3.60;2.60;;;;;;;23.09;45.80;100558.56;10185936;28;20596;-60
2023/08/10 19:39:23;;;;;;;4.80;2.80;;;;;;;23.01;45.67;100562.22;10174512;28;20085;-60
2023/08/10 19:44:25;;;;;;;4.85;2.80;;;;;;;22.94;45.48;100566.81;10198564;28;20278;-61
2023/08/10 19:49:28;;;;;;;3.20;2.78;;;;;;;22.84;45.75;100572.56;10181335;28;20075;-60
2023/08/10 19:54:29;;;;;;;2.92;2.63;;;;;;;22.75;45.44;100574.56;10196216;28;20513;-59
2023/08/10 19:59:31;;;;;;;5.18;2.47;;;;;;;22.69;45.42;100572.63;10168996;28;20433;-60
2023/08/10 20:04:32;;;;;;;4.20;2.50;;;;;;;22.63;45.69;100575.31;10185895;28;20565;-60
2023/08/10 20:09:34;;;;;;;3.38;2.38;;;;;;;22.57;46.10;100585.88;10184441;28;20211;-59
2023/08/10 20:14:36;;;;;;;6.35;2.83;;;;;;;22.45;46.04;100571.16;10181977;28;20067;-60
2023/08/10 20:19:37;;;;;;;2.47;1.88;;;;;;;22.41;46.46;100578.88;10165997;28;20705;-60
2023/08/10 20:24:40;;;;;;;2.70;2.28;;;;;;;22.37;46.20;100595.72;10183379;28;20047;-59
2023/08/10 20:29:42;;;;;;;2.40;2.10;;;;;;;22.33;46.47;100591.72;10181070;28;20063;-59
2023/08/10 20:34:43;;;;;;;4.90;3.15;;;;;;;22.25;46.36;100590.75;10180065;28;20055;-59
2023/08/10 20:39:44;;;;;;;5.93;2.90;;;;;;;22.20;46.33;100595.94;10200257;28;20133;-60
2023/08/10 20:44:46;;;;;;;5.38;3.08;;;;;;;22.14;47.55;100596.66;10184498;28;20055;-60
2023/08/10 20:49:49;;;;;;;3.60;2.40;;;;;;;22.08;46.67;100589.31;10182149;28;20067;-60
2023/08/10 20:54:50;;;;;;;3.28;2.65;;;;;;;21.98;47.68;100581.50;10172446;28;20080;-61
2023/08/10 20:59:52;;;;;;;4.03;2.75;;;;;;;21.94;48.97;100582.06;10162810;28;20192;-60
2023/08/10 21:04:54;;;;;;;3.53;2.67;;;;;;;21.89;48.57;100594.31;10195313;28;20149;-59
2023/08/10 21:09:56;;;;;;;3.25;2.95;;;;;;;21.83;48.76;100594.25;10180808;28;20063;-61
2023/08/10 21:15:04;;;;;;;4.50;3.03;;;;;;;21.78;49.43;100600.19;10177571;28;20060;-59
2023/08/10 21:20:10;;;;;;;3.13;2.60;;;;;;;21.71;49.49;100602.84;10181809;28;20090;-59
2023/08/10 21:25:12;;;;;;;4.72;2.97;;;;;;;21.64;49.71;100598.38;10201378;28;20055;-60
2023/08/10 21:30:13;;;;;;;5.63;4.97;;;;;;;21.62;50.34;100609.38;10184842;28;20091;-59
2023/08/10 21:35:15;;;;;;;7.50;3.35;;;;;;;21.57;50.87;100595.53;10180958;28;20177;-64
2023/08/10 21:40:19;;;;;;;4.03;3.17;;;;;;;21.50;51.13;100600.88;10189265;28;22264;-59
2023/08/10 21:45:21;;;;;;;4.30;3.00;;;;;;;21.46;51.86;100602.25;10187254;28;20043;-59
2023/08/10 21:50:23;;;;;;;4.40;2.72;;;;;;;21.39;52.13;100609.44;10187133;28;20056;-59
2023/08/10 21:55:24;;;;;;;3.33;2.70;;;;;;;21.36;52.82;100609.81;10186998;28;20649;-60
2023/08/10 22:00:26;;;;;;;4.97;3.00;;;;;;;21.31;52.79;100614.94;10187313;28;20138;-59
2023/08/10 22:05:28;;;;;;;3.30;2.67;;;;;;;21.24;53.55;100611.28;10185384;28;20047;-60
2023/08/10 22:10:29;;;;;;;2.75;2.55;;;;;;;21.15;53.08;100610.53;10185966;28;20051;-61
2023/08/10 22:15:31;;;;;;;5.20;2.40;;;;;;;21.13;52.95;100624.25;10175462;28;20046;-59
2023/08/10 22:20:33;;;;;;;3.80;2.78;;;;;;;21.10;53.28;100621.06;10194147;28;20059;-60
2023/08/10 22:25:34;;;;;;;5.47;3.33;;;;;;;21.04;54.09;100622.66;10186074;28;20361;-61
2023/08/10 22:30:36;;;;;;;5.88;3.05;;;;;;;21.01;54.32;100631.13;10166540;28;20826;-60
2023/08/10 22:35:37;;;;;;;3.70;2.95;;;;;;;20.94;55.22;100622.91;10200633;28;20202;-61
2023/08/10 22:40:39;;;;;;;6.13;3.42;;;;;;;20.92;55.52;100626.81;10203804;28;20051;-60
2023/08/10 22:45:40;;;;;;;4.18;2.75;;;;;;;20.84;56.42;100623.16;10186562;28;20131;-58
2023/08/10 22:50:42;;;;;;;4.07;2.80;;;;;;;20.79;55.85;100617.47;10167624;28;20063;-59
2023/08/10 22:55:44;;;;;;;3.55;2.92;;;;;;;20.73;55.99;100620.91;10184745;28;20048;-58
2023/08/10 23:00:46;;;;;;;3.78;2.60;;;;;;;20.71;56.42;100617.50;10185589;28;20623;-61
2023/08/10 23:05:47;;;;;;;3.60;2.30;;;;;;;20.67;56.57;100627.00;10171012;28;20054;-59
2023/08/10 23:10:49;;;;;;;6.05;2.58;;;;;;;20.62;56.64;100622.09;10184290;28;20043;-59